Timeline UpdatesTrip UpdatesNews PostsPvt PostsTravel TipsAdmin PostsConv PostsFollowed PostsChat RequestsBlog PostsPNR Posts

Disclaimer
Search
 
 
Tue Jul 29, 2014 06:04:40 ISTHomeTrainsΣChainsAtlasPNRForumGalleryNewsFAQTripsMembersLoginFeedback
No Recent News for this Train
Other Trains in the News **new
Latest...
Train leaving its originating station on 20/07 will be diverted to run via Gorakhpur-Kaptanganj-Thane-Siwan instead of existing route via Gorakhpur-Deoria Sadar-Bhatni-Siwan
Fri Jul 11, 2014 (07:51AM)
⇐ Return Journey: Train# 15707

15708/Amrapali Express

Feb 22 2014 (1:17PM)
Change Departure Station:
Change Arrival Station:
Post a Train Travel TipPost a Train Travel Tip **new
Post a Comment/Question/Picture/VideoPost a Comment/Question/Picture/Video
Pantry/Catering
✕ NO Pantry Car
✓ Catering Avbl
RSA - Rake Sharing
This train has 5 rakes in all, and has on-board cleaning system available. ; Charging points available in AC-2 tier, one in each coupe.
Rake/Coach Composition
LOCO«SLR-GN-GN-GN-GN-Gn-S9-S8-S7-S6-S5-S4-S3-S2-S1-B1-A1-GN-GN-GN-GN-SLR=22 Coach Train. S9 becomes S1 in UP train.
Loco
ASR-LKO> CNB WAP4 LKO-KIR> SGUJ WDP4
News    PNR    Forum    Time-Table    Availability    Fare Chart    Map    Arr/Dep History    Trips    Gallery    ΣChains    X/O    Timeline    
Travel Time: 24h 55m    25 halts    Distance: 1269 km    Avg Speed: 50 km/hr
Type: Mail/Express
Zone: NFR/Northeast Frontier
Departs @ 12:00 (Avg on time)
Platform# 6
SMTWTFS
Ambala Cantt. Junction/UMB 
Arrives @ 12:55 +1 night (Avg 3h 51m late)
Platform# 3
SMTWTFS
Muzaffarpur Junction/MFP 

25 halts. 203 intermediate Stations between Ambala Cantt. Junction and Muzaffarpur Junction

Show ALL intermediate Stations  Show Old Time-Table

#CodeStation NameX/OArrivesAvgDepartsAvgHaltPFDay#KmSpeedElevZoneAddress
1ASRAmritsar Junction (5)  -07:15+231-249.682233mNRAmritsar 143002, Punjab
2JNLJandiala (2)X  07:29+1207:31+122m21-230.484238mNRJandiala, Punjab
3BEASBeas Junction (2)  07:48+1407:50+142m21-206.561238mNRBeas, Punjab
4KREKartarpur (2)X  08:11+1208:13+122m11-185.152236mNRKartarpur, Punjab
5JUCJalandhar City Junction (5)X  08:30+908:35+115m21-170.426239mNRJalandhar 144001, Punjab
6JRCJalandhar Cantt. Junction (3)X  08:46+808:48+82m21-165.665239mNRNear Rama Mandi, Punjab
7PGWPhagwara Junction (3)X  09:03+809:05+82m11-149.359245mNRPhagwara, Punjab
8GRYGoraya (2)X  09:15+809:17+82m11-139.469240mNRGoraya, Punjab
9PHRPhillaur Junction (3)  09:28+909:30+92m11-126.752246mNRPhillaur, Punjab
10LDHLudhiana Junction (7)X  09:45+1009:55+1210m11-113.657246mNRLudhiana 141001, Punjab
11KNNKhanna (3)X  10:40+610:42+72m21-70.867269mNRNH 1, Punjab
12SIRSirhind Junction (3)  10:58+511:00+52m21-52.983271mNRSirhind, Punjab
13RPJRajpura Junction (3)11:18+511:20+52m21-28.148272mNRNH-1, Punjab
14UMB»Ambala Cantt. Junction (7)»X  11:55-112:00+05m610.081278mNRAmbala 133001, Haryana
15KUNKarnal (3)X  12:56+1312:58+142m1175.274253mNRKarnal, Haryana
16PNPPanipat Junction (5)  13:26+1213:28+122m11109.685235mNRPanipat, Haryana
17SNPSonipat (3)X  14:00+1214:02+122m11154.769225mNRSonipat, Haryana
18SZMDelhi Sabzi Mandi (2)  14:37+1714:39+172m--1195.17220mNRGulabi Bagh, Delhi NCT
19DLIOld Delhi Junction (16)XO  15:05+915:20+1215m111198.158219mNRNear Chandni Chowk Metro Station, Delhi NCT
20KRJKhurja Junction (4)X16:45+4516:47+502m--1280.8109199mNCRBulandshahr, Uttar Pradesh
21ALJNAligarh Junction (4)XO  17:11+1:3117:16+1:315m21324.339192mNCRAligarh, Uttar Pradesh
22HRSHathras Junction (3)X  18:02+1:3818:04+1:392m21354.561183mNCRMahamaya Nagar(05722-242803), Uttar Pradesh
23TDLTundla Junction (5)XO  18:51+2:0118:56+2:055m--1402.541167mNCRDistt.Firozabad, Uttar Pradesh
24FZDFirozabad (4)X  19:20+2:0319:22+2:112m21419.055164mNCRFirozabad, Uttar Pradesh
25ETWEtawah (5)O  20:44+1:5320:46+1:572m31494.370154mNCRDistt. Etawah, Uttar Pradesh
26CNBKanpur Central (10)X  22:45+1:5623:00+1:5715m--1633.650128mNCRKANPUR-208 001, Uttar Pradesh
27ONUnnao Junction (5)X  23:21+2:0723:23+2:072m--1651.053129mNRUnnao, Uttar Pradesh
28LKOLucknow Charbagh (9)X  00:25+2:0600:50+2:0625m12705.638123mNR226004, Uttar Pradesh
29BBKBarabanki Junction (4)  01:35+2:0901:37+2:132m--2734.269122mNRPin-225001, Uttar Pradesh
30GDGonda Junction (3)X  02:55+2:3103:00+2:325m22823.580110mNERGonda 271001, Uttar Pradesh
31MURMankapur Junction (5)X03:21+2:3803:23+2:392m--2851.486104mNERDistrict Gonda, Uttar Pradesh
32BSTBasti (4)  04:05+2:4404:10+2:475m--2911.98490mNERBasti 272001, Uttar Pradesh
33KLDKhalilabad (3)X  04:31+2:5404:33+2:562m--2941.42886mNERKhalilabad- 272175, Uttar Pradesh
34GKPGorakhpur Junction (10)  05:45+2:2906:00+2:3115m72975.46484mNERGorakhpur 273001, Uttar Pradesh
35DEOSDeoria Sadar (3)X  06:46+3:0306:48+3:082m221024.55179mNERDeoria- 274001, Uttar Pradesh
36SVSiwan Junction (4)  08:10+3:2208:15+3:235m121094.04170mNERSiwan, Bihar
37CPRChhapra Junction (6)X  09:45+2:4910:05+2:5320m--21155.26458mNERDistt: Saran, Bihar
38SEESonpur Junction (4)X  10:56+3:1311:03+3:337m--21209.22556mECRSaran, Bihar
39HJPHajipur Junction (3)X  11:16+3:3111:18+3:432m--21214.73355mECR06224-272230, Bihar
40MFP•Muzaffarpur Junction (6)•  12:55+3:5113:05+3:5310m321268.67257mECRMuzaffarpur, Bihar
41DOLDholi (2)  13:26+4:1313:28+4:142m--21293.76752mECRDistt. Muzaffarpur, Bihar
42KRBPKhudiram B Pusa  13:40+4:2213:42+4:232m--21307.13652mECRDistt. Samastipur, Bihar
43SPJSamastipur Junction (9)X  14:05+3:5614:13+3:568m--21320.74255mECRSamastipur, Bihar
44BJUBarauni Junction (9)  15:25+3:4315:35+3:4410m521371.34049mECRBegusarai, Bihar
45BGSBegu Sarai (3)  15:55+4:3015:57+4:302m221384.744 ECRBegusarai, Bihar
46KGGKhagaria Junction (3)  16:51+3:3616:53+3:212m221424.64843mECRKhagaria, Bihar
47MNEMansi Junction (3)X  17:04+3:3917:06+3:402m--21433.44143mECRMansi, Bihar
48THBThana Bihpur JunctionX  18:08+4:2118:10+4:232m--21475.44839mECRThana Bihpur, Bihar
49NNANaugachiaX  18:30+4:0918:32+4:102m--21491.34637mECRBhagalpur, Bihar
50KUEKursela  18:56+3:5818:58+3:592m--21509.83431mECRNH 31, Bihar
51CRRKaragola RoadX  19:28+3:5019:30+3:512m--21526.83336mECRLachhmipur, Bihar
52KIRKatihar Junction (7)  20:10+3:07-121549.1-35mNFRKatihar 854105, Bihar
Scroll to Top
Scroll to Bottom